| time (UTC) | temp F | wind direction | speed knots | gust knots | rain 1hr in | rain 24hr in | rain mn in | humidity % | barometer mb |
| 20260507185508 | 59 | 348 | 1.7 | 1.7 | 0.00 | 0.00 | 0.00 | 43 | 1001.6 |
| 20260507185004 | 58 | 271 | 1.7 | 1.7 | 0.00 | 0.00 | 0.00 | 44 | 1001.5 |
| 20260507184502 | 59 | 255 | 1.7 | 1.7 | 0.00 | 0.00 | 0.00 | 43 | 1001.7 |
| 20260507184000 | 60 | 312 | 0.9 | 3.5 | 0.00 | 0.00 | 0.00 | 42 | 1001.7 |
| 20260507183456 | 60 | 261 | 2.6 | 2.6 | 0.00 | 0.00 | 0.00 | 42 | 1001.6 |
| 20260507182953 | 60 | 68 | 1.7 | 2.6 | 0.00 | 0.00 | 0.00 | 40 | 1001.7 |
| 20260507182449 | 59 | 255 | 0.9 | 5.2 | 0.00 | 0.00 | 0.00 | 41 | 1001.5 |
| 20260507181945 | 60 | 298 | 0.9 | 2.6 | 0.00 | 0.00 | 0.00 | 42 | 1001.5 |
| 20260507181442 | 60 | 264 | 0.9 | 3.5 | 0.00 | 0.00 | 0.00 | 42 | 1001.7 |
| 20260507180938 | 59 | 246 | 2.6 | 3.5 | 0.00 | 0.00 | 0.00 | 45 | 1001.7 |
| 20260507180435 | 57 | 61 | 0.0 | 1.7 | 0.00 | 0.00 | 0.00 | 47 | 1001.6 |
| 20260507175931 | 57 | 347 | 1.7 | 2.6 | 0.00 | 0.00 | 0.00 | 43 | 1001.8 |
| 20260507175428 | 59 | 252 | 1.7 | 2.6 | 0.00 | 0.00 | 0.00 | 44 | 1002.1 |
| 20260507174926 | 59 | 291 | 1.7 | 2.6 | 0.00 | 0.00 | 0.00 | 46 | 1002.0 |
| 20260507174423 | 59 | 278 | 0.9 | 2.6 | 0.00 | 0.00 | 0.00 | 42 | 1002.4 |
| 20260507173920 | 60 | 309 | 0.9 | 1.7 | 0.00 | 0.00 | 0.00 | 42 | 1002.1 |
| 20260507173417 | 59 | 197 | 0.9 | 2.6 | 0.00 | 0.00 | 0.00 | 45 | 1002.1 |
| 20260507172914 | 58 | 184 | 2.6 | 5.2 | 0.00 | 0.00 | 0.00 | 41 | 1002.1 |
| 20260507172410 | 57 | 178 | 1.7 | 1.7 | 0.00 | 0.00 | 0.00 | 43 | 1002.1 |
| 20260507171906 | 57 | 303 | 1.7 | 1.7 | 0.00 | 0.00 | 0.00 | 46 | 1002.2 |
| 20260507171403 | 57 | 266 | 2.6 | 2.6 | 0.00 | 0.00 | 0.00 | 46 | 1002.5 |
| 20260507170900 | 58 | 251 | 1.7 | 2.6 | 0.00 | 0.00 | 0.00 | 44 | 1002.2 |
| 20260507170357 | 58 | 20 | 1.7 | 2.6 | 0.00 | 0.00 | 0.00 | 41 | 1002.4 |
| 20260507165853 | 57 | 305 | 0.9 | 2.6 | 0.00 | 0.00 | 0.00 | 44 | 1002.7 |
| 20260507165349 | 55 | 239 | 1.7 | 1.7 | 0.00 | 0.00 | 0.00 | 46 | 1002.6 |
| 20260507164845 | 55 | 277 | 1.7 | 2.6 | 0.00 | 0.00 | 0.00 | 46 | 1002.7 |
| 20260507164342 | 56 | 173 | 2.6 | 2.6 | 0.00 | 0.00 | 0.00 | 46 | 1002.9 |
| 20260507163839 | 57 | 222 | 0.9 | 1.7 | 0.00 | 0.00 | 0.00 | 45 | 1002.9 |
| 20260507163337 | 58 | 282 | 1.7 | 2.6 | 0.00 | 0.00 | 0.00 | 49 | 1002.9 |
| 20260507162833 | 57 | 278 | 1.7 | 1.7 | 0.00 | 0.00 | 0.00 | 47 | 1002.8 |
| 20260507162329 | 56 | 354 | 0.9 | 1.7 | 0.00 | 0.00 | 0.00 | 44 | 1003.0 |
| 20260507161826 | 57 | 266 | 1.7 | 2.6 | 0.00 | 0.00 | 0.00 | 46 | 1003.1 |
| 20260507161322 | 56 | 251 | 0.9 | 2.6 | 0.00 | 0.00 | 0.00 | 46 | 1003.0 |
| 20260507160819 | 55 | 255 | 1.7 | 2.6 | 0.00 | 0.00 | 0.00 | 47 | 1003.0 |
| 20260507160315 | 56 | 346 | 0.0 | 1.7 | 0.00 | 0.00 | 0.00 | 44 | 1003.0 |
| 20260507155811 | 54 | 330 | 3.5 | 5.2 | 0.00 | 0.00 | 0.00 | 49 | 1003.2 |
| 20260507155307 | 53 | 31 | 0.0 | 1.7 | 0.00 | 0.00 | 0.00 | 46 | 1003.2 |
| 20260507154804 | 54 | 27 | 1.7 | 2.6 | 0.00 | 0.00 | 0.00 | 47 | 1003.1 |
| 20260507154301 | 54 | 61 | 0.9 | 1.7 | 0.00 | 0.00 | 0.00 | 48 | 1003.2 |
| 20260507153758 | 55 | 283 | 0.9 | 2.6 | 0.00 | 0.00 | 0.00 | 45 | 1003.2 |
| 20260507153254 | 54 | 263 | 0.9 | 0.9 | 0.00 | 0.00 | 0.00 | 48 | 1003.3 |
| 20260507152751 | 55 | 5 | 0.0 | 2.6 | 0.00 | 0.00 | 0.00 | 46 | 1003.3 |
| 20260507152247 | 56 | 165 | 0.0 | 1.7 | 0.00 | 0.00 | 0.00 | 46 | 1003.3 |
| 20260507151743 | 55 | 169 | 1.7 | 1.7 | 0.00 | 0.00 | 0.00 | 48 | 1003.3 |
| 20260507151240 | 56 | 264 | 2.6 | 2.6 | 0.00 | 0.00 | 0.00 | 50 | 1003.5 |
| 20260507150737 | 55 | 103 | 0.9 | 1.7 | 0.00 | 0.00 | 0.00 | 43 | 1003.6 |
| 20260507150234 | 54 | 6 | 1.7 | 2.6 | 0.00 | 0.00 | 0.00 | 46 | 1003.5 |
| 20260507145730 | 54 | 333 | 0.9 | 1.7 | 0.00 | 0.00 | 0.00 | 44 | 1003.6 |
| 20260507145226 | 54 | 313 | 0.0 | 1.7 | 0.00 | 0.00 | 0.00 | 47 | 1003.8 |
| 20260507144723 | 53 | 250 | 1.7 | 2.6 | 0.00 | 0.00 | 0.00 | 49 | 1003.8 |
| 20260507144221 | 53 | 262 | 1.7 | 1.7 | 0.00 | 0.00 | 0.00 | 50 | 1003.8 |
| 20260507143717 | 53 | 7 | 1.7 | 2.6 | 0.00 | 0.00 | 0.00 | 47 | 1004.1 |
| 20260507143215 | 52 | 147 | 0.9 | 1.7 | 0.00 | 0.00 | 0.00 | 53 | 1004.1 |
| 20260507142710 | 51 | 332 | 1.7 | 2.6 | 0.00 | 0.00 | 0.00 | 51 | 1004.0 |
| 20260507142207 | 51 | 28 | 0.9 | 2.6 | 0.00 | 0.00 | 0.00 | 51 | 1004.0 |
| 20260507141703 | 51 | 318 | 0.9 | 1.7 | 0.00 | 0.00 | 0.00 | 55 | 1004.3 |
| 20260507141200 | 50 | 271 | 1.7 | 1.7 | 0.00 | 0.00 | 0.00 | 57 | 1004.4 |
| 20260507140657 | 50 | 68 | 0.9 | 2.6 | 0.00 | 0.00 | 0.00 | 52 | 1004.3 |
| 20260507140154 | 51 | 272 | 0.9 | 1.7 | 0.00 | 0.00 | 0.00 | 55 | 1004.4 |
| 20260507135651 | 50 | 167 | 0.0 | 0.0 | 0.00 | 0.00 | 0.00 | 55 | 1004.6 |
| 20260507135148 | 50 | 174 | 0.0 | 1.7 | 0.00 | 0.00 | 0.00 | 58 | 1004.6 |
| 20260507134644 | 49 | 263 | 0.9 | 0.9 | 0.00 | 0.00 | 0.00 | 60 | 1004.7 |
| 20260507134141 | 49 | 346 | 0.9 | 1.7 | 0.00 | 0.00 | 0.00 | 57 | 1004.7 |
| 20260507133637 | 49 | 5 | 0.9 | 1.7 | 0.00 | 0.00 | 0.00 | 61 | 1004.8 |
| 20260507133135 | 48 | 182 | 0.9 | 1.7 | 0.00 | 0.00 | 0.00 | 61 | 1004.6 |
| 20260507132632 | 48 | 327 | 0.0 | 0.0 | 0.00 | 0.00 | 0.00 | 61 | 1004.6 |
| 20260507132127 | 48 | 284 | 0.0 | 0.0 | 0.00 | 0.00 | 0.00 | 64 | 1004.5 |
| 20260507131624 | 48 | 254 | 0.0 | 0.0 | 0.00 | 0.00 | 0.00 | 62 | 1004.5 |
| 20260507131122 | 47 | 358 | 0.0 | 0.0 | 0.00 | 0.00 | 0.00 | 65 | 1004.5 |
| 20260507130619 | 47 | 163 | 0.0 | 0.0 | 0.00 | 0.00 | 0.00 | 64 | 1004.5 |
| 20260507130117 | 47 | 122 | 0.0 | 0.0 | 0.00 | 0.00 | 0.00 | 66 | 1004.5 |
| 20260507125615 | 46 | 43 | 0.0 | 0.0 | 0.00 | 0.00 | 0.00 | 66 | 1004.8 |
| 20260507125112 | 46 | 145 | 0.0 | 0.0 | 0.00 | 0.00 | 0.00 | 64 | 1004.6 |
| 20260507124608 | 46 | 49 | 0.0 | 0.0 | 0.00 | 0.00 | 0.00 | 66 | 1004.8 |
| 20260507124107 | 45 | 28 | 0.0 | 0.0 | 0.00 | 0.00 | 0.00 | 65 | 1004.7 |
| 20260507123604 | 45 | 262 | 0.0 | 0.0 | 0.00 | 0.00 | 0.00 | 72 | 1004.6 |
| 20260507123101 | 44 | 285 | 0.0 | 0.0 | 0.00 | 0.00 | 0.00 | 71 | 1004.8 |
| 20260507122556 | 44 | 285 | 0.0 | 0.0 | 0.00 | 0.00 | 0.00 | 82 | 1004.7 |
| 20260507122052 | 44 | 285 | 0.0 | 0.0 | 0.00 | 0.00 | 0.00 | 85 | 1005.0 |
| 20260507121548 | 43 | 285 | 0.0 | 0.0 | 0.00 | 0.00 | 0.00 | 87 | 1004.6 |
| 20260507121044 | 42 | 64 | 0.0 | 0.0 | 0.00 | 0.00 | 0.00 | 91 | 1004.8 |
| 20260507120540 | 41 | 64 | 0.0 | 0.0 | 0.00 | 0.00 | 0.00 | 92 | 1004.5 |
| 20260507120037 | 41 | 64 | 0.0 | 0.0 | 0.00 | 0.00 | 0.00 | 92 | 1004.8 |
| 20260507115534 | 40 | 64 | 0.0 | 0.0 | 0.00 | 0.00 | 0.00 | 92 | 1004.5 |
| 20260507115030 | 40 | 64 | 0.0 | 0.0 | 0.00 | 0.00 | 0.00 | 92 | 1004.5 |
| 20260507114526 | 39 | 64 | 0.0 | 0.0 | 0.00 | 0.00 | 0.00 | 93 | 1004.8 |
| 20260507114023 | 39 | 64 | 0.0 | 0.0 | 0.00 | 0.00 | 0.00 | 93 | 1004.8 |
| 20260507113520 | 38 | 64 | 0.0 | 0.0 | 0.00 | 0.00 | 0.00 | 93 | 1004.6 |
| 20260507113017 | 38 | 64 | 0.0 | 0.0 | 0.00 | 0.00 | 0.00 | 93 | 1004.5 |
| 20260507112515 | 38 | 64 | 0.0 | 0.0 | 0.00 | 0.00 | 0.00 | 93 | 1004.4 |
| 20260507112012 | 37 | 64 | 0.0 | 0.0 | 0.00 | 0.00 | 0.00 | 93 | 1004.2 |
| 20260507111510 | 37 | 64 | 0.0 | 0.0 | 0.00 | 0.00 | 0.00 | 93 | 1004.3 |
| 20260507111005 | 37 | 64 | 0.0 | 0.0 | 0.00 | 0.00 | 0.00 | 93 | 1004.3 |
| 20260507110501 | 37 | 57 | 0.0 | 0.0 | 0.00 | 0.00 | 0.00 | 93 | 1004.2 |
| 20260507105958 | 37 | 57 | 0.0 | 0.0 | 0.00 | 0.00 | 0.00 | 93 | 1004.3 |
| 20260507105455 | 37 | 57 | 0.0 | 0.0 | 0.00 | 0.00 | 0.00 | 93 | 1004.1 |
| 20260507104951 | 37 | 56 | 0.0 | 0.0 | 0.00 | 0.00 | 0.00 | 92 | 1004.1 |
| 20260507104449 | 37 | 56 | 0.0 | 0.0 | 0.00 | 0.00 | 0.00 | 92 | 1004.1 |
| 20260507103944 | 37 | 56 | 0.0 | 0.0 | 0.00 | 0.00 | 0.00 | 92 | 1004.0 |
| 20260507103441 | 37 | 56 | 0.0 | 0.0 | 0.00 | 0.00 | 0.00 | 92 | 1004.1 |
| 20260507102937 | 37 | 56 | 0.0 | 0.0 | 0.00 | 0.00 | 0.00 | 92 | 1003.9 |
| 20260507102434 | 37 | 42 | 0.0 | 0.0 | 0.00 | 0.00 | 0.00 | 92 | 1003.8 |
| 20260507101931 | 37 | 266 | 0.0 | 0.0 | 0.00 | 0.00 | 0.00 | 92 | 1003.9 |
| 20260507101426 | 37 | 266 | 0.0 | 0.0 | 0.00 | 0.00 | 0.00 | 92 | 1003.9 |
| 20260507100922 | 38 | 266 | 0.0 | 0.0 | 0.00 | 0.00 | 0.00 | 91 | 1003.7 |
| 20260507100420 | 38 | 266 | 0.0 | 0.0 | 0.00 | 0.00 | 0.00 | 91 | 1003.8 |
| 20260507095918 | 38 | 266 | 0.0 | 0.0 | 0.00 | 0.00 | 0.00 | 91 | 1003.8 |
| 20260507095415 | 38 | 266 | 0.0 | 0.0 | 0.00 | 0.00 | 0.00 | 90 | 1003.7 |
| 20260507094912 | 38 | 266 | 0.0 | 0.0 | 0.00 | 0.00 | 0.00 | 90 | 1003.8 |
| 20260507094408 | 38 | 266 | 0.0 | 0.0 | 0.00 | 0.00 | 0.00 | 90 | 1003.7 |
| 20260507093905 | 39 | 266 | 0.0 | 0.0 | 0.00 | 0.00 | 0.00 | 89 | 1003.7 |
| 20260507093403 | 39 | 266 | 0.0 | 0.0 | 0.00 | 0.00 | 0.00 | 89 | 1003.9 |
| 20260507092901 | 39 | 266 | 0.0 | 0.0 | 0.00 | 0.00 | 0.00 | 89 | 1003.7 |
| 20260507092357 | 39 | 266 | 0.0 | 0.0 | 0.00 | 0.00 | 0.00 | 89 | 1003.8 |
| 20260507091854 | 40 | 266 | 0.0 | 0.0 | 0.00 | 0.00 | 0.00 | 88 | 1003.9 |
| 20260507091350 | 40 | 266 | 0.0 | 0.0 | 0.00 | 0.00 | 0.00 | 88 | 1004.1 |
| 20260507090846 | 40 | 266 | 0.0 | 0.0 | 0.00 | 0.00 | 0.00 | 86 | 1003.9 |
| 20260507090342 | 40 | 266 | 0.0 | 0.0 | 0.00 | 0.00 | 0.00 | 86 | 1003.9 |
| 20260507085840 | 41 | 266 | 0.0 | 0.0 | 0.00 | 0.00 | 0.00 | 85 | 1003.8 |
| 20260507085336 | 41 | 266 | 0.0 | 0.0 | 0.00 | 0.00 | 0.00 | 85 | 1003.7 |
| 20260507084834 | 42 | 266 | 0.0 | 0.0 | 0.00 | 0.00 | 0.00 | 84 | 1003.8 |
| 20260507084330 | 42 | 266 | 0.0 | 0.0 | 0.00 | 0.00 | 0.00 | 83 | 1003.9 |
| 20260507083828 | 42 | 266 | 0.0 | 0.0 | 0.00 | 0.00 | 0.00 | 81 | 1003.8 |
| 20260507083324 | 42 | 266 | 0.0 | 0.0 | 0.00 | 0.00 | 0.00 | 80 | 1003.8 |
| 20260507082820 | 43 | 266 | 0.0 | 0.0 | 0.00 | 0.00 | 0.00 | 78 | 1003.8 |
| 20260507082316 | 43 | 266 | 0.0 | 0.0 | 0.00 | 0.00 | 0.00 | 76 | 1003.8 |
| 20260507081814 | 43 | 266 | 0.0 | 0.0 | 0.00 | 0.00 | 0.00 | 76 | 1003.7 |
| 20260507081309 | 43 | 266 | 0.0 | 0.0 | 0.00 | 0.00 | 0.00 | 77 | 1003.6 |
| 20260507080806 | 44 | 266 | 0.0 | 0.0 | 0.00 | 0.00 | 0.00 | 76 | 1003.5 |
| 20260507080302 | 44 | 266 | 0.0 | 0.0 | 0.00 | 0.00 | 0.00 | 76 | 1003.7 |
| 20260507075757 | 44 | 266 | 0.0 | 0.0 | 0.00 | 0.00 | 0.00 | 76 | 1003.8 |
| 20260507075254 | 44 | 266 | 0.0 | 0.0 | 0.00 | 0.00 | 0.00 | 76 | 1003.8 |
| 20260507074750 | 44 | 266 | 0.0 | 0.0 | 0.00 | 0.00 | 0.00 | 75 | 1003.9 |
| 20260507074249 | 44 | 266 | 0.0 | 0.0 | 0.00 | 0.00 | 0.00 | 75 | 1003.9 |
| 20260507073745 | 45 | 266 | 0.0 | 0.0 | 0.00 | 0.00 | 0.00 | 76 | 1003.8 |
| 20260507073241 | 45 | 266 | 0.0 | 0.0 | 0.00 | 0.00 | 0.00 | 76 | 1003.9 |
| 20260507072739 | 45 | 266 | 0.0 | 0.0 | 0.00 | 0.00 | 0.00 | 75 | 1003.7 |
| 20260507072237 | 45 | 266 | 0.0 | 0.0 | 0.00 | 0.00 | 0.00 | 74 | 1003.8 |
| 20260507071734 | 45 | 266 | 0.0 | 0.0 | 0.00 | 0.00 | 0.00 | 77 | 1003.6 |
| 20260507071230 | 45 | 266 | 0.0 | 0.0 | 0.00 | 0.00 | 0.00 | 77 | 1003.6 |
| 20260507070727 | 45 | 266 | 0.0 | 0.0 | 0.00 | 0.00 | 0.00 | 75 | 1003.6 |
| 20260507070224 | 45 | 266 | 0.0 | 0.0 | 0.00 | 0.00 | 0.00 | 76 | 1003.9 |
| 20260507065721 | 45 | 266 | 0.0 | 0.0 | 0.00 | 0.00 | 0.00 | 77 | 1003.9 |
| 20260507065218 | 45 | 266 | 0.0 | 0.0 | 0.00 | 0.00 | 0.00 | 77 | 1003.9 |
| 20260507064715 | 45 | 266 | 0.0 | 0.0 | 0.00 | 0.00 | 0.00 | 76 | 1003.7 |
| 20260507064214 | 45 | 266 | 0.0 | 0.0 | 0.00 | 0.00 | 0.00 | 76 | 1004.0 |
| 20260507063711 | 45 | 266 | 0.0 | 0.0 | 0.00 | 0.00 | 0.00 | 78 | 1003.9 |
| 20260507063207 | 45 | 266 | 0.0 | 0.0 | 0.00 | 0.00 | 0.00 | 76 | 1003.8 |
| 20260507062704 | 46 | 266 | 0.0 | 0.0 | 0.00 | 0.00 | 0.00 | 74 | 1004.0 |
| 20260507062202 | 46 | 266 | 0.0 | 0.0 | 0.00 | 0.00 | 0.00 | 75 | 1004.0 |
| 20260507061700 | 46 | 266 | 0.0 | 0.0 | 0.00 | 0.00 | 0.00 | 76 | 1004.1 |
| 20260507061157 | 46 | 266 | 0.0 | 0.0 | 0.00 | 0.00 | 0.00 | 77 | 1004.2 |
| 20260507060655 | 46 | 266 | 0.0 | 0.0 | 0.00 | 0.00 | 0.00 | 77 | 1004.4 |
| 20260507060151 | 46 | 266 | 0.0 | 0.0 | 0.00 | 0.00 | 0.00 | 77 | 1004.1 |
| 20260507055647 | 46 | 266 | 0.0 | 0.0 | 0.00 | 0.00 | 0.00 | 80 | 1004.2 |
| 20260507055143 | 46 | 266 | 0.0 | 0.0 | 0.00 | 0.00 | 0.00 | 79 | 1004.3 |
| 20260507054639 | 46 | 266 | 0.0 | 0.0 | 0.00 | 0.00 | 0.00 | 79 | 1004.2 |
| 20260507054136 | 46 | 266 | 0.0 | 0.0 | 0.00 | 0.00 | 0.00 | 77 | 1004.4 |
| 20260507053634 | 46 | 266 | 0.0 | 0.0 | 0.00 | 0.00 | 0.00 | 77 | 1004.5 |
| 20260507053132 | 46 | 266 | 0.0 | 0.0 | 0.00 | 0.00 | 0.00 | 76 | 1004.5 |
| 20260507052630 | 46 | 266 | 0.0 | 0.0 | 0.00 | 0.00 | 0.00 | 77 | 1004.4 |
| 20260507052126 | 46 | 266 | 0.0 | 0.0 | 0.00 | 0.00 | 0.00 | 77 | 1004.2 |
| 20260507051624 | 46 | 266 | 0.0 | 0.0 | 0.00 | 0.00 | 0.00 | 77 | 1004.4 |
| 20260507051121 | 46 | 266 | 0.0 | 0.0 | 0.00 | 0.00 | 0.00 | 75 | 1004.5 |
| 20260507050618 | 46 | 266 | 0.0 | 0.0 | 0.00 | 0.00 | 0.00 | 76 | 1004.7 |
| 20260507050114 | 46 | 266 | 0.0 | 0.0 | 0.00 | 0.00 | 0.00 | 77 | 1004.6 |
| 20260507045611 | 46 | 266 | 0.0 | 0.0 | 0.00 | 0.00 | 0.00 | 80 | 1004.3 |
| 20260507045108 | 47 | 266 | 0.0 | 0.0 | 0.00 | 0.00 | 0.00 | 80 | 1004.5 |
| 20260507044604 | 47 | 266 | 0.0 | 0.0 | 0.00 | 0.00 | 0.00 | 79 | 1004.5 |
| 20260507044102 | 47 | 266 | 0.0 | 0.0 | 0.00 | 0.00 | 0.00 | 79 | 1004.6 |
| 20260507043557 | 47 | 266 | 0.0 | 0.0 | 0.00 | 0.00 | 0.00 | 79 | 1004.4 |
| 20260507043055 | 47 | 266 | 0.0 | 0.0 | 0.00 | 0.00 | 0.00 | 78 | 1004.4 |
| 20260507042550 | 47 | 266 | 0.0 | 0.0 | 0.00 | 0.00 | 0.00 | 77 | 1004.3 |
| 20260507042046 | 47 | 266 | 0.0 | 0.0 | 0.00 | 0.00 | 0.00 | 77 | 1004.5 |
| 20260507041543 | 47 | 266 | 0.0 | 0.0 | 0.00 | 0.00 | 0.00 | 78 | 1004.5 |
| 20260507041040 | 47 | 266 | 0.0 | 0.0 | 0.00 | 0.00 | 0.00 | 77 | 1004.4 |
| 20260507040537 | 47 | 266 | 0.0 | 0.0 | 0.00 | 0.00 | 0.00 | 81 | 1004.2 |
| 20260507040032 | 48 | 266 | 0.0 | 0.0 | 0.00 | 0.00 | 0.00 | 81 | 1004.4 |
| 20260507035529 | 48 | 266 | 0.0 | 0.0 | 0.00 | 0.19 | 0.19 | 79 | 1004.8 |
| 20260507035026 | 48 | 266 | 0.0 | 0.0 | 0.00 | 0.19 | 0.19 | 80 | 1004.4 |
| 20260507034522 | 48 | 266 | 0.0 | 0.0 | 0.00 | 0.19 | 0.19 | 79 | 1004.4 |
| 20260507034020 | 48 | 266 | 0.0 | 0.0 | 0.00 | 0.19 | 0.19 | 78 | 1004.5 |
| 20260507033518 | 48 | 266 | 0.0 | 0.0 | 0.00 | 0.19 | 0.19 | 78 | 1004.7 |
| 20260507033015 | 48 | 266 | 0.0 | 0.0 | 0.00 | 0.19 | 0.19 | 78 | 1004.5 |
| 20260507032512 | 48 | 266 | 0.0 | 0.0 | 0.00 | 0.19 | 0.19 | 77 | 1004.0 |
| 20260507032008 | 48 | 266 | 0.0 | 0.0 | 0.00 | 0.19 | 0.19 | 78 | 1003.9 |
| 20260507031504 | 48 | 266 | 0.0 | 0.0 | 0.00 | 0.19 | 0.19 | 78 | 1004.1 |
| 20260507031001 | 48 | 266 | 0.0 | 0.0 | 0.00 | 0.19 | 0.19 | 79 | 1003.9 |
| 20260507030458 | 48 | 266 | 0.0 | 0.0 | 0.00 | 0.19 | 0.19 | 80 | 1003.9 |
| 20260507025955 | 48 | 266 | 0.0 | 0.0 | 0.00 | 0.19 | 0.19 | 81 | 1003.8 |
| 20260507025453 | 48 | 266 | 0.0 | 0.0 | 0.00 | 0.19 | 0.19 | 83 | 1004.1 |
| 20260507024951 | 49 | 266 | 0.0 | 0.0 | 0.00 | 0.19 | 0.19 | 83 | 1003.8 |
| 20260507024448 | 49 | 266 | 0.0 | 0.0 | 0.00 | 0.19 | 0.19 | 81 | 1004.1 |
| 20260507023943 | 49 | 266 | 0.0 | 0.0 | 0.00 | 0.19 | 0.19 | 80 | 1004.2 |
| 20260507023440 | 49 | 276 | 0.0 | 0.0 | 0.00 | 0.19 | 0.19 | 80 | 1004.1 |
| 20260507022937 | 49 | 276 | 0.0 | 0.0 | 0.00 | 0.19 | 0.19 | 80 | 1004.1 |
| 20260507022435 | 49 | 276 | 0.0 | 0.0 | 0.00 | 0.19 | 0.19 | 81 | 1003.9 |
| 20260507021930 | 49 | 276 | 0.0 | 0.0 | 0.00 | 0.19 | 0.19 | 78 | 1003.7 |
| 20260507021425 | 49 | 322 | 0.0 | 0.0 | 0.00 | 0.19 | 0.19 | 81 | 1003.7 |
| 20260507020924 | 49 | 32 | 0.0 | 0.0 | 0.00 | 0.19 | 0.19 | 81 | 1003.6 |
| 20260507020420 | 49 | 17 | 0.0 | 0.0 | 0.00 | 0.19 | 0.19 | 82 | 1003.4 |
| 20260507015917 | 49 | 353 | 0.0 | 0.0 | 0.00 | 0.19 | 0.19 | 82 | 1003.1 |
| 20260507015415 | 49 | 300 | 0.0 | 0.0 | 0.00 | 0.19 | 0.19 | 84 | 1003.2 |
| 20260507014912 | 49 | 337 | 0.0 | 0.0 | 0.00 | 0.19 | 0.19 | 86 | 1003.1 |
| 20260507014408 | 49 | 51 | 0.0 | 0.0 | 0.00 | 0.19 | 0.19 | 86 | 1003.4 |
| 20260507013904 | 49 | 149 | 0.9 | 1.7 | 0.00 | 0.19 | 0.19 | 87 | 1003.1 |
| 20260507013402 | 49 | 43 | 0.0 | 0.0 | 0.00 | 0.19 | 0.19 | 87 | 1003.2 |
| 20260507012859 | 49 | 42 | 0.0 | 0.0 | 0.00 | 0.19 | 0.19 | 87 | 1003.3 |
| 20260507012355 | 50 | 42 | 0.0 | 0.0 | 0.00 | 0.19 | 0.19 | 87 | 1003.2 |
| 20260507011853 | 50 | 101 | 0.0 | 0.0 | 0.00 | 0.19 | 0.19 | 87 | 1003.3 |
| 20260507011350 | 50 | 43 | 0.0 | 0.0 | 0.00 | 0.19 | 0.19 | 87 | 1003.2 |
| 20260507010849 | 50 | 32 | 0.0 | 0.0 | 0.00 | 0.19 | 0.19 | 86 | 1003.3 |
| 20260507010345 | 50 | 49 | 0.0 | 0.0 | 0.00 | 0.19 | 0.19 | 86 | 1003.4 |
| 20260507005842 | 50 | 11 | 0.0 | 0.0 | 0.00 | 0.19 | 0.19 | 87 | 1003.5 |
| 20260507005339 | 50 | 10 | 0.0 | 0.0 | 0.00 | 0.19 | 0.19 | 86 | 1003.6 |
| 20260507004836 | 50 | 9 | 0.0 | 0.0 | 0.00 | 0.19 | 0.19 | 87 | 1003.4 |
| 20260507004333 | 50 | 9 | 0.0 | 0.0 | 0.00 | 0.19 | 0.19 | 86 | 1003.4 |
| 20260507003830 | 50 | 9 | 0.0 | 0.0 | 0.00 | 0.19 | 0.19 | 86 | 1003.6 |
| 20260507003326 | 50 | 349 | 0.0 | 0.0 | 0.00 | 0.19 | 0.19 | 85 | 1003.9 |
| 20260507002820 | 50 | 348 | 0.0 | 0.0 | 0.00 | 0.19 | 0.19 | 86 | 1003.9 |
| 20260507002317 | 50 | 348 | 0.0 | 0.0 | 0.00 | 0.19 | 0.19 | 87 | 1004.1 |
| 20260507001815 | 50 | 348 | 0.0 | 0.0 | 0.00 | 0.19 | 0.19 | 87 | 1003.8 |
| 20260507001311 | 50 | 354 | 0.0 | 0.0 | 0.00 | 0.19 | 0.19 | 85 | 1003.6 |
| 20260507000808 | 50 | 9 | 0.0 | 0.0 | 0.00 | 0.19 | 0.19 | 86 | 1003.2 |
| 20260507000306 | 50 | 346 | 0.0 | 0.0 | 0.00 | 0.19 | 0.19 | 85 | 1003.3 |
| 20260506235800 | 50 | 346 | 0.0 | 0.0 | 0.00 | 0.19 | 0.19 | 85 | 1003.5 |
| 20260506235256 | 50 | 346 | 0.0 | 0.0 | 0.00 | 0.19 | 0.19 | 86 | 1003.4 |
| 20260506234753 | 50 | 318 | 0.0 | 0.0 | 0.00 | 0.19 | 0.19 | 87 | 1003.5 |
| 20260506234250 | 50 | 319 | 0.0 | 0.0 | 0.00 | 0.19 | 0.19 | 86 | 1003.4 |
| 20260506233748 | 50 | 318 | 0.0 | 0.0 | 0.00 | 0.19 | 0.19 | 84 | 1003.3 |
| 20260506233244 | 50 | 308 | 0.0 | 0.0 | 0.00 | 0.19 | 0.19 | 84 | 1003.0 |
| 20260506232741 | 50 | 254 | 0.0 | 0.0 | 0.00 | 0.19 | 0.19 | 84 | 1002.9 |
| 20260506232235 | 50 | 318 | 0.0 | 0.0 | 0.00 | 0.19 | 0.19 | 85 | 1003.1 |
| 20260506231733 | 50 | 318 | 0.0 | 0.0 | 0.00 | 0.19 | 0.19 | 85 | 1003.2 |
| 20260506231231 | 50 | 323 | 0.0 | 0.0 | 0.00 | 0.19 | 0.19 | 84 | 1003.0 |
| 20260506230728 | 50 | 323 | 0.0 | 0.0 | 0.00 | 0.19 | 0.19 | 85 | 1002.8 |
| 20260506230225 | 50 | 323 | 0.0 | 0.0 | 0.00 | 0.19 | 0.19 | 85 | 1002.8 |
| 20260506225721 | 51 | 307 | 0.0 | 0.0 | 0.00 | 0.19 | 0.19 | 83 | 1002.7 |
| 20260506225218 | 51 | 190 | 0.0 | 0.0 | 0.00 | 0.19 | 0.19 | 82 | 1002.5 |
| 20260506224715 | 51 | 334 | 0.0 | 0.0 | 0.00 | 0.19 | 0.19 | 83 | 1002.5 |
| 20260506224212 | 51 | 323 | 0.0 | 0.0 | 0.00 | 0.19 | 0.19 | 84 | 1002.5 |
| 20260506223708 | 51 | 313 | 0.0 | 0.0 | 0.00 | 0.19 | 0.19 | 84 | 1002.6 |
| 20260506223204 | 51 | 326 | 0.0 | 0.0 | 0.00 | 0.19 | 0.19 | 84 | 1002.8 |
| 20260506222701 | 51 | 295 | 0.0 | 0.0 | 0.00 | 0.19 | 0.19 | 85 | 1002.6 |
| 20260506222156 | 51 | 284 | 0.0 | 0.0 | 0.00 | 0.19 | 0.19 | 84 | 1002.6 |
| 20260506221655 | 51 | 320 | 0.0 | 0.0 | 0.00 | 0.19 | 0.19 | 84 | 1002.4 |
| 20260506221153 | 51 | 338 | 0.0 | 0.0 | 0.00 | 0.19 | 0.19 | 85 | 1002.6 |
| 20260506220649 | 51 | 315 | 0.0 | 0.9 | 0.00 | 0.19 | 0.19 | 85 | 1002.8 |
| 20260506220144 | 51 | 346 | 0.0 | 0.9 | 0.00 | 0.19 | 0.19 | 84 | 1002.6 |
| 20260506215641 | 51 | 308 | 0.0 | 0.0 | 0.00 | 0.19 | 0.19 | 84 | 1002.4 |
| 20260506215136 | 51 | 275 | 0.0 | 0.0 | 0.00 | 0.19 | 0.19 | 85 | 1002.5 |
| 20260506214634 | 51 | 290 | 0.0 | 0.0 | 0.00 | 0.19 | 0.19 | 85 | 1002.4 |
| 20260506214131 | 51 | 282 | 0.0 | 0.0 | 0.00 | 0.19 | 0.19 | 87 | 1002.1 |
| 20260506213629 | 51 | 176 | 0.9 | 1.7 | 0.00 | 0.19 | 0.19 | 86 | 1001.9 |
| 20260506213126 | 51 | 337 | 0.9 | 0.9 | 0.00 | 0.19 | 0.19 | 87 | 1001.8 |
| 20260506212624 | 51 | 280 | 0.9 | 1.7 | 0.00 | 0.19 | 0.19 | 86 | 1001.9 |
| 20260506212118 | 51 | 280 | 0.9 | 1.7 | 0.00 | 0.19 | 0.19 | 87 | 1001.9 |
| 20260506211614 | 52 | 315 | 0.0 | 0.0 | 0.00 | 0.19 | 0.19 | 87 | 1001.7 |
| 20260506211111 | 52 | 300 | 0.0 | 0.0 | 0.00 | 0.19 | 0.19 | 87 | 1001.6 |
| 20260506210608 | 52 | 302 | 0.0 | 0.9 | 0.00 | 0.19 | 0.19 | 88 | 1001.5 |
| 20260506210104 | 52 | 18 | 0.0 | 0.0 | 0.00 | 0.19 | 0.19 | 90 | 1001.4 |
| 20260506205601 | 52 | 325 | 0.0 | 0.0 | 0.00 | 0.19 | 0.19 | 91 | 1001.4 |
| 20260506205056 | 52 | 356 | 0.0 | 0.0 | 0.00 | 0.19 | 0.19 | 92 | 1001.4 |
| 20260506204555 | 51 | 329 | 0.0 | 0.0 | 0.00 | 0.19 | 0.19 | 92 | 1001.2 |
| 20260506204051 | 51 | 308 | 0.0 | 0.0 | 0.00 | 0.19 | 0.19 | 92 | 1001.2 |
| 20260506203550 | 51 | 325 | 0.0 | 0.0 | 0.00 | 0.19 | 0.19 | 92 | 1001.3 |
| 20260506203046 | 51 | 95 | 0.0 | 0.9 | 0.00 | 0.19 | 0.19 | 92 | 1001.2 |
| 20260506202543 | 51 | 358 | 0.9 | 0.9 | 0.00 | 0.19 | 0.19 | 92 | 1001.0 |
| 20260506202040 | 51 | 252 | 0.0 | 0.0 | 0.00 | 0.19 | 0.19 | 92 | 1001.1 |
| 20260506201538 | 51 | 252 | 0.0 | 0.0 | 0.00 | 0.19 | 0.19 | 92 | 1001.1 |
| 20260506201034 | 51 | 252 | 0.0 | 0.0 | 0.00 | 0.19 | 0.19 | 92 | 1001.1 |
| 20260506200530 | 51 | 279 | 0.0 | 0.0 | 0.00 | 0.19 | 0.19 | 92 | 1001.3 |
| 20260506200027 | 51 | 309 | 0.0 | 0.0 | 0.00 | 0.19 | 0.19 | 92 | 1001.3 |
| 20260506195524 | 51 | 315 | 0.0 | 0.0 | 0.00 | 0.19 | 0.19 | 92 | 1001.4 |
| 20260506195020 | 51 | 272 | 0.0 | 0.0 | 0.00 | 0.19 | 0.19 | 92 | 1001.4 |
| 20260506194518 | 51 | 284 | 0.0 | 0.0 | 0.00 | 0.19 | 0.19 | 92 | 1001.4 |
| 20260506194014 | 51 | 284 | 0.0 | 0.0 | 0.00 | 0.19 | 0.19 | 93 | 1001.2 |
| 20260506193511 | 51 | 318 | 0.0 | 0.0 | 0.00 | 0.19 | 0.19 | 92 | 1001.3 |
| 20260506193008 | 51 | 270 | 0.0 | 0.0 | 0.00 | 0.19 | 0.19 | 93 | 1001.1 |
| 20260506192505 | 51 | 354 | 0.0 | 0.9 | 0.00 | 0.19 | 0.19 | 92 | 1001.3 |
| 20260506192001 | 51 | 338 | 0.0 | 0.0 | 0.00 | 0.19 | 0.19 | 93 | 1001.1 |
| 20260506191458 | 51 | 291 | 0.9 | 1.7 | 0.00 | 0.19 | 0.19 | 93 | 1001.2 |
| 20260506190954 | 51 | 137 | 0.0 | 0.9 | 0.00 | 0.19 | 0.19 | 93 | 1001.3 |
| 20260506190451 | 51 | 275 | 0.9 | 0.9 | 0.00 | 0.19 | 0.19 | 94 | 1001.3 |
| 20260506185948 | 51 | 309 | 0.0 | 1.7 | 0.00 | 0.19 | 0.19 | 94 | 1001.2 |